sensor_id;sensor_type;location;lat;lon;timestamp;P1;durP1;ratioP1;P2;durP2;ratioP2
2542;SDS011;1116;51.502;7.414;2024-03-22T00:01:42;34.60;;;23.50;;
2542;SDS011;1116;51.502;7.414;2024-03-22T00:04:08;31.40;;;23.30;;
2542;SDS011;1116;51.502;7.414;2024-03-22T00:06:34;31.50;;;21.33;;
2542;SDS011;1116;51.502;7.414;2024-03-22T00:09:04;31.30;;;22.57;;
2542;SDS011;1116;51.502;7.414;2024-03-22T00:11:30;32.90;;;22.00;;
2542;SDS011;1116;51.502;7.414;2024-03-22T00:13:56;32.47;;;20.93;;
2542;SDS011;1116;51.502;7.414;2024-03-22T00:16:22;31.77;;;22.03;;
2542;SDS011;1116;51.502;7.414;2024-03-22T00:18:48;30.53;;;20.40;;
2542;SDS011;1116;51.502;7.414;2024-03-22T00:21:15;30.27;;;21.30;;
2542;SDS011;1116;51.502;7.414;2024-03-22T00:23:41;32.80;;;20.50;;
2542;SDS011;1116;51.502;7.414;2024-03-22T00:26:11;30.83;;;20.80;;
2542;SDS011;1116;51.502;7.414;2024-03-22T00:28:37;30.33;;;20.90;;
2542;SDS011;1116;51.502;7.414;2024-03-22T00:31:04;31.27;;;19.93;;
2542;SDS011;1116;51.502;7.414;2024-03-22T00:33:30;33.80;;;22.10;;
2542;SDS011;1116;51.502;7.414;2024-03-22T00:35:57;31.70;;;21.10;;
2542;SDS011;1116;51.502;7.414;2024-03-22T00:38:23;31.83;;;21.33;;
2542;SDS011;1116;51.502;7.414;2024-03-22T00:40:50;35.93;;;21.23;;
2542;SDS011;1116;51.502;7.414;2024-03-22T00:43:19;28.60;;;19.83;;
2542;SDS011;1116;51.502;7.414;2024-03-22T00:45:46;29.37;;;20.77;;
2542;SDS011;1116;51.502;7.414;2024-03-22T00:48:12;32.20;;;21.70;;
2542;SDS011;1116;51.502;7.414;2024-03-22T00:50:39;32.00;;;21.67;;
2542;SDS011;1116;51.502;7.414;2024-03-22T00:53:06;30.67;;;20.13;;
2542;SDS011;1116;51.502;7.414;2024-03-22T00:55:32;27.73;;;19.20;;
2542;SDS011;1116;51.502;7.414;2024-03-22T00:57:58;30.30;;;20.10;;
2542;SDS011;1116;51.502;7.414;2024-03-22T01:00:27;34.13;;;22.10;;
2542;SDS011;1116;51.502;7.414;2024-03-22T01:02:53;33.30;;;21.17;;
2542;SDS011;1116;51.502;7.414;2024-03-22T01:05:20;31.03;;;20.40;;
2542;SDS011;1116;51.502;7.414;2024-03-22T01:07:46;32.70;;;19.50;;
2542;SDS011;1116;51.502;7.414;2024-03-22T01:10:12;27.20;;;18.50;;
2542;SDS011;1116;51.502;7.414;2024-03-22T01:12:39;29.57;;;20.30;;
2542;SDS011;1116;51.502;7.414;2024-03-22T01:15:05;30.30;;;20.97;;
2542;SDS011;1116;51.502;7.414;2024-03-22T01:17:35;29.30;;;19.60;;
2542;SDS011;1116;51.502;7.414;2024-03-22T01:20:01;30.30;;;20.33;;
2542;SDS011;1116;51.502;7.414;2024-03-22T01:22:28;27.73;;;19.30;;
2542;SDS011;1116;51.502;7.414;2024-03-22T01:24:54;27.90;;;19.30;;
2542;SDS011;1116;51.502;7.414;2024-03-22T01:27:20;32.80;;;20.07;;
2542;SDS011;1116;51.502;7.414;2024-03-22T01:29:47;29.07;;;19.33;;
2542;SDS011;1116;51.502;7.414;2024-03-22T01:32:13;27.37;;;18.50;;
2542;SDS011;1116;51.502;7.414;2024-03-22T01:34:42;28.27;;;19.40;;
2542;SDS011;1116;51.502;7.414;2024-03-22T01:37:09;28.57;;;19.53;;
2542;SDS011;1116;51.502;7.414;2024-03-22T01:39:35;31.70;;;18.63;;
2542;SDS011;1116;51.502;7.414;2024-03-22T01:42:01;30.50;;;19.57;;
2542;SDS011;1116;51.502;7.414;2024-03-22T01:44:28;28.43;;;19.70;;
2542;SDS011;1116;51.502;7.414;2024-03-22T01:46:55;26.20;;;18.30;;
2542;SDS011;1116;51.502;7.414;2024-03-22T01:49:22;27.43;;;18.70;;
2542;SDS011;1116;51.502;7.414;2024-03-22T01:51:53;30.90;;;19.97;;
2542;SDS011;1116;51.502;7.414;2024-03-22T01:54:20;30.40;;;19.43;;
2542;SDS011;1116;51.502;7.414;2024-03-22T01:56:46;29.53;;;19.63;;
2542;SDS011;1116;51.502;7.414;2024-03-22T01:59:13;30.97;;;19.53;;
2542;SDS011;1116;51.502;7.414;2024-03-22T02:01:40;28.67;;;18.40;;
2542;SDS011;1116;51.502;7.414;2024-03-22T02:04:07;26.90;;;19.10;;
2542;SDS011;1116;51.502;7.414;2024-03-22T02:06:33;30.70;;;19.87;;
2542;SDS011;1116;51.502;7.414;2024-03-22T02:09:02;28.80;;;18.97;;
2542;SDS011;1116;51.502;7.414;2024-03-22T02:11:30;29.70;;;19.10;;
2542;SDS011;1116;51.502;7.414;2024-03-22T02:13:56;25.90;;;19.17;;
2542;SDS011;1116;51.502;7.414;2024-03-22T02:16:23;27.00;;;17.93;;
2542;SDS011;1116;51.502;7.414;2024-03-22T02:18:49;27.07;;;19.13;;
2542;SDS011;1116;51.502;7.414;2024-03-22T02:21:15;27.10;;;18.83;;
2542;SDS011;1116;51.502;7.414;2024-03-22T02:23:44;30.33;;;18.70;;
2542;SDS011;1116;51.502;7.414;2024-03-22T02:26:11;27.30;;;17.97;;
2542;SDS011;1116;51.502;7.414;2024-03-22T02:28:37;26.90;;;18.47;;
2542;SDS011;1116;51.502;7.414;2024-03-22T02:31:03;28.97;;;19.60;;
2542;SDS011;1116;51.502;7.414;2024-03-22T02:33:30;26.03;;;18.30;;
2542;SDS011;1116;51.502;7.414;2024-03-22T02:35:57;27.40;;;18.40;;
2542;SDS011;1116;51.502;7.414;2024-03-22T02:38:23;25.97;;;17.50;;
2542;SDS011;1116;51.502;7.414;2024-03-22T02:40:52;26.87;;;18.60;;
2542;SDS011;1116;51.502;7.414;2024-03-22T02:43:19;28.17;;;17.67;;
2542;SDS011;1116;51.502;7.414;2024-03-22T02:45:46;25.13;;;17.67;;
2542;SDS011;1116;51.502;7.414;2024-03-22T02:48:13;28.60;;;17.23;;
2542;SDS011;1116;51.502;7.414;2024-03-22T02:50:39;28.87;;;17.47;;
2542;SDS011;1116;51.502;7.414;2024-03-22T02:53:05;27.70;;;18.53;;
2542;SDS011;1116;51.502;7.414;2024-03-22T02:55:35;27.03;;;17.40;;
2542;SDS011;1116;51.502;7.414;2024-03-22T02:58:05;27.70;;;18.10;;
2542;SDS011;1116;51.502;7.414;2024-03-22T03:00:35;27.20;;;18.13;;
2542;SDS011;1116;51.502;7.414;2024-03-22T03:03:02;29.30;;;17.93;;
2542;SDS011;1116;51.502;7.414;2024-03-22T03:05:28;28.60;;;17.77;;
2542;SDS011;1116;51.502;7.414;2024-03-22T03:07:54;24.07;;;17.00;;
2542;SDS011;1116;51.502;7.414;2024-03-22T03:10:21;25.50;;;18.27;;
2542;SDS011;1116;51.502;7.414;2024-03-22T03:12:47;25.90;;;18.03;;
2542;SDS011;1116;51.502;7.414;2024-03-22T03:15:16;26.30;;;18.33;;
2542;SDS011;1116;51.502;7.414;2024-03-22T03:17:42;25.00;;;17.33;;
2542;SDS011;1116;51.502;7.414;2024-03-22T03:20:09;23.80;;;17.30;;
2542;SDS011;1116;51.502;7.414;2024-03-22T03:22:37;24.43;;;17.90;;
2542;SDS011;1116;51.502;7.414;2024-03-22T03:25:04;27.37;;;17.73;;
2542;SDS011;1116;51.502;7.414;2024-03-22T03:27:31;26.43;;;18.03;;
2542;SDS011;1116;51.502;7.414;2024-03-22T03:29:57;28.67;;;18.23;;
2542;SDS011;1116;51.502;7.414;2024-03-22T03:32:26;31.47;;;18.97;;
2542;SDS011;1116;51.502;7.414;2024-03-22T03:34:53;29.83;;;19.17;;
2542;SDS011;1116;51.502;7.414;2024-03-22T03:37:19;25.43;;;18.90;;
2542;SDS011;1116;51.502;7.414;2024-03-22T03:39:45;23.80;;;16.70;;
2542;SDS011;1116;51.502;7.414;2024-03-22T03:42:11;27.87;;;18.87;;
2542;SDS011;1116;51.502;7.414;2024-03-22T03:44:38;28.97;;;18.90;;
2542;SDS011;1116;51.502;7.414;2024-03-22T03:47:04;29.90;;;19.30;;
2542;SDS011;1116;51.502;7.414;2024-03-22T03:49:33;27.43;;;18.57;;
2542;SDS011;1116;51.502;7.414;2024-03-22T03:52:00;25.93;;;18.33;;
2542;SDS011;1116;51.502;7.414;2024-03-22T03:54:26;27.87;;;18.27;;
2542;SDS011;1116;51.502;7.414;2024-03-22T03:56:52;27.37;;;18.50;;
2542;SDS011;1116;51.502;7.414;2024-03-22T03:59:18;28.10;;;19.37;;
2542;SDS011;1116;51.502;7.414;2024-03-22T04:01:45;27.70;;;19.43;;
2542;SDS011;1116;51.502;7.414;2024-03-22T04:04:11;26.70;;;18.80;;
2542;SDS011;1116;51.502;7.414;2024-03-22T04:06:40;27.60;;;19.40;;
2542;SDS011;1116;51.502;7.414;2024-03-22T04:09:07;23.30;;;17.23;;
2542;SDS011;1116;51.502;7.414;2024-03-22T04:11:33;27.03;;;19.43;;
2542;SDS011;1116;51.502;7.414;2024-03-22T04:13:59;26.70;;;18.47;;
2542;SDS011;1116;51.502;7.414;2024-03-22T04:16:25;26.50;;;17.57;;
2542;SDS011;1116;51.502;7.414;2024-03-22T04:18:52;26.07;;;19.37;;
2542;SDS011;1116;51.502;7.414;2024-03-22T04:21:19;31.73;;;20.37;;
2542;SDS011;1116;51.502;7.414;2024-03-22T04:23:48;27.23;;;18.67;;
2542;SDS011;1116;51.502;7.414;2024-03-22T04:26:14;26.10;;;18.03;;
2542;SDS011;1116;51.502;7.414;2024-03-22T04:28:41;23.83;;;17.60;;
2542;SDS011;1116;51.502;7.414;2024-03-22T04:31:07;24.13;;;18.30;;
2542;SDS011;1116;51.502;7.414;2024-03-22T04:33:35;25.23;;;18.73;;
2542;SDS011;1116;51.502;7.414;2024-03-22T04:36:02;23.93;;;17.93;;
2542;SDS011;1116;51.502;7.414;2024-03-22T04:38:29;28.30;;;18.13;;
2542;SDS011;1116;51.502;7.414;2024-03-22T04:40:58;26.63;;;18.90;;
2542;SDS011;1116;51.502;7.414;2024-03-22T04:43:24;25.10;;;17.50;;
2542;SDS011;1116;51.502;7.414;2024-03-22T04:45:51;23.70;;;17.77;;
2542;SDS011;1116;51.502;7.414;2024-03-22T04:48:17;26.30;;;16.83;;
2542;SDS011;1116;51.502;7.414;2024-03-22T04:50:45;22.00;;;17.17;;
2542;SDS011;1116;51.502;7.414;2024-03-22T04:53:12;23.97;;;17.97;;
2542;SDS011;1116;51.502;7.414;2024-03-22T04:55:38;23.30;;;16.60;;
2542;SDS011;1116;51.502;7.414;2024-03-22T04:58:07;26.10;;;17.17;;
2542;SDS011;1116;51.502;7.414;2024-03-22T05:00:33;25.73;;;18.60;;
2542;SDS011;1116;51.502;7.414;2024-03-22T05:03:00;23.13;;;16.37;;
2542;SDS011;1116;51.502;7.414;2024-03-22T05:05:27;22.30;;;16.70;;
2542;SDS011;1116;51.502;7.414;2024-03-22T05:07:53;23.83;;;17.67;;
2542;SDS011;1116;51.502;7.414;2024-03-22T05:10:19;19.80;;;15.00;;
2542;SDS011;1116;51.502;7.414;2024-03-22T05:12:46;23.13;;;16.37;;
2542;SDS011;1116;51.502;7.414;2024-03-22T05:15:15;20.83;;;15.10;;
2542;SDS011;1116;51.502;7.414;2024-03-22T05:17:41;20.50;;;16.50;;
2542;SDS011;1116;51.502;7.414;2024-03-22T05:20:08;20.17;;;15.60;;
2542;SDS011;1116;51.502;7.414;2024-03-22T05:22:36;20.43;;;14.93;;
2542;SDS011;1116;51.502;7.414;2024-03-22T05:25:02;19.90;;;14.23;;
2542;SDS011;1116;51.502;7.414;2024-03-22T05:27:30;22.27;;;16.37;;
2542;SDS011;1116;51.502;7.414;2024-03-22T05:29:57;21.27;;;15.60;;
2542;SDS011;1116;51.502;7.414;2024-03-22T05:32:26;20.40;;;14.67;;
2542;SDS011;1116;51.502;7.414;2024-03-22T05:34:53;20.77;;;15.27;;
2542;SDS011;1116;51.502;7.414;2024-03-22T05:37:19;20.40;;;15.50;;
2542;SDS011;1116;51.502;7.414;2024-03-22T05:39:45;18.93;;;14.37;;
2542;SDS011;1116;51.502;7.414;2024-03-22T05:42:12;21.30;;;14.70;;
2542;SDS011;1116;51.502;7.414;2024-03-22T05:44:38;21.20;;;14.93;;
2542;SDS011;1116;51.502;7.414;2024-03-22T05:47:04;18.10;;;14.47;;
2542;SDS011;1116;51.502;7.414;2024-03-22T05:49:33;21.53;;;15.83;;
2542;SDS011;1116;51.502;7.414;2024-03-22T05:52:00;19.53;;;13.67;;
2542;SDS011;1116;51.502;7.414;2024-03-22T05:54:26;18.10;;;13.50;;
2542;SDS011;1116;51.502;7.414;2024-03-22T05:56:53;20.40;;;14.53;;
2542;SDS011;1116;51.502;7.414;2024-03-22T05:59:19;15.77;;;13.43;;
2542;SDS011;1116;51.502;7.414;2024-03-22T06:01:45;18.07;;;13.03;;
2542;SDS011;1116;51.502;7.414;2024-03-22T06:04:12;17.87;;;14.00;;
2542;SDS011;1116;51.502;7.414;2024-03-22T06:06:41;16.73;;;12.57;;
2542;SDS011;1116;51.502;7.414;2024-03-22T06:09:07;19.03;;;13.57;;
2542;SDS011;1116;51.502;7.414;2024-03-22T06:11:34;17.30;;;13.37;;
2542;SDS011;1116;51.502;7.414;2024-03-22T06:14:00;16.20;;;12.77;;
2542;SDS011;1116;51.502;7.414;2024-03-22T06:16:27;17.60;;;13.20;;
2542;SDS011;1116;51.502;7.414;2024-03-22T06:18:54;13.60;;;11.80;;
2542;SDS011;1116;51.502;7.414;2024-03-22T06:21:20;16.03;;;13.13;;
2542;SDS011;1116;51.502;7.414;2024-03-22T06:23:51;14.50;;;12.07;;
2542;SDS011;1116;51.502;7.414;2024-03-22T06:26:17;15.83;;;12.60;;
2542;SDS011;1116;51.502;7.414;2024-03-22T06:28:44;15.47;;;11.60;;
2542;SDS011;1116;51.502;7.414;2024-03-22T06:31:10;16.73;;;12.43;;
2542;SDS011;1116;51.502;7.414;2024-03-22T06:33:36;13.03;;;11.10;;
2542;SDS011;1116;51.502;7.414;2024-03-22T06:36:03;16.17;;;12.30;;
2542;SDS011;1116;51.502;7.414;2024-03-22T06:38:30;16.27;;;12.97;;
2542;SDS011;1116;51.502;7.414;2024-03-22T06:40:59;15.53;;;11.90;;
2542;SDS011;1116;51.502;7.414;2024-03-22T06:43:26;15.83;;;11.80;;
2542;SDS011;1116;51.502;7.414;2024-03-22T06:45:52;14.67;;;11.57;;
2542;SDS011;1116;51.502;7.414;2024-03-22T06:48:18;13.60;;;11.40;;
2542;SDS011;1116;51.502;7.414;2024-03-22T06:50:44;14.23;;;12.37;;
2542;SDS011;1116;51.502;7.414;2024-03-22T06:53:11;15.10;;;11.57;;
2542;SDS011;1116;51.502;7.414;2024-03-22T06:55:37;16.20;;;12.20;;
2542;SDS011;1116;51.502;7.414;2024-03-22T06:58:06;14.30;;;11.03;;
2542;SDS011;1116;51.502;7.414;2024-03-22T07:00:33;15.40;;;11.17;;
2542;SDS011;1116;51.502;7.414;2024-03-22T07:02:59;16.13;;;10.90;;
2542;SDS011;1116;51.502;7.414;2024-03-22T07:05:26;17.73;;;11.30;;
2542;SDS011;1116;51.502;7.414;2024-03-22T07:07:52;13.57;;;11.57;;
2542;SDS011;1116;51.502;7.414;2024-03-22T07:10:19;13.93;;;11.80;;
2542;SDS011;1116;51.502;7.414;2024-03-22T07:12:45;13.20;;;11.20;;
2542;SDS011;1116;51.502;7.414;2024-03-22T07:15:14;13.83;;;11.87;;
2542;SDS011;1116;51.502;7.414;2024-03-22T07:17:41;15.23;;;12.13;;
2542;SDS011;1116;51.502;7.414;2024-03-22T07:20:08;13.60;;;11.67;;
2542;SDS011;1116;51.502;7.414;2024-03-22T07:22:34;14.60;;;11.77;;
2542;SDS011;1116;51.502;7.414;2024-03-22T07:25:01;14.80;;;12.13;;
2542;SDS011;1116;51.502;7.414;2024-03-22T07:27:27;14.50;;;11.57;;
2542;SDS011;1116;51.502;7.414;2024-03-22T07:29:54;14.30;;;11.47;;
2542;SDS011;1116;51.502;7.414;2024-03-22T07:32:23;13.93;;;11.77;;
2542;SDS011;1116;51.502;7.414;2024-03-22T07:34:49;13.07;;;11.53;;
2542;SDS011;1116;51.502;7.414;2024-03-22T07:37:15;15.60;;;12.10;;
2542;SDS011;1116;51.502;7.414;2024-03-22T07:39:41;16.80;;;12.03;;
2542;SDS011;1116;51.502;7.414;2024-03-22T07:42:08;17.23;;;12.10;;
2542;SDS011;1116;51.502;7.414;2024-03-22T07:44:34;15.60;;;12.10;;
2542;SDS011;1116;51.502;7.414;2024-03-22T07:47:00;14.20;;;11.90;;
2542;SDS011;1116;51.502;7.414;2024-03-22T07:49:30;13.83;;;11.60;;
2542;SDS011;1116;51.502;7.414;2024-03-22T07:51:57;15.97;;;11.90;;
2542;SDS011;1116;51.502;7.414;2024-03-22T07:54:23;17.93;;;12.90;;
2542;SDS011;1116;51.502;7.414;2024-03-22T07:56:51;15.40;;;11.87;;
2542;SDS011;1116;51.502;7.414;2024-03-22T07:59:18;14.13;;;12.27;;
2542;SDS011;1116;51.502;7.414;2024-03-22T08:01:44;17.07;;;12.40;;
2542;SDS011;1116;51.502;7.414;2024-03-22T08:04:10;14.37;;;11.90;;
2542;SDS011;1116;51.502;7.414;2024-03-22T08:06:39;16.57;;;12.90;;
2542;SDS011;1116;51.502;7.414;2024-03-22T08:09:05;17.10;;;11.90;;
2542;SDS011;1116;51.502;7.414;2024-03-22T08:11:32;17.50;;;13.43;;
2542;SDS011;1116;51.502;7.414;2024-03-22T08:13:58;16.77;;;12.50;;
2542;SDS011;1116;51.502;7.414;2024-03-22T08:16:27;16.10;;;11.83;;
2542;SDS011;1116;51.502;7.414;2024-03-22T08:18:53;13.10;;;11.63;;
2542;SDS011;1116;51.502;7.414;2024-03-22T08:21:19;15.67;;;11.87;;
2542;SDS011;1116;51.502;7.414;2024-03-22T08:23:48;13.87;;;12.50;;
2542;SDS011;1116;51.502;7.414;2024-03-22T08:26:15;16.50;;;12.23;;
2542;SDS011;1116;51.502;7.414;2024-03-22T08:28:41;15.07;;;12.97;;
2542;SDS011;1116;51.502;7.414;2024-03-22T08:31:07;16.77;;;11.87;;
2542;SDS011;1116;51.502;7.414;2024-03-22T08:33:34;14.07;;;12.57;;
2542;SDS011;1116;51.502;7.414;2024-03-22T08:36:00;14.53;;;12.23;;
2542;SDS011;1116;51.502;7.414;2024-03-22T08:38:26;16.23;;;13.03;;
2542;SDS011;1116;51.502;7.414;2024-03-22T08:40:55;15.63;;;12.90;;
2542;SDS011;1116;51.502;7.414;2024-03-22T08:43:22;15.70;;;13.10;;
2542;SDS011;1116;51.502;7.414;2024-03-22T08:45:48;15.40;;;12.83;;
2542;SDS011;1116;51.502;7.414;2024-03-22T08:48:14;19.03;;;14.23;;
2542;SDS011;1116;51.502;7.414;2024-03-22T08:50:41;15.83;;;13.10;;
2542;SDS011;1116;51.502;7.414;2024-03-22T08:53:08;17.03;;;13.17;;
2542;SDS011;1116;51.502;7.414;2024-03-22T08:55:34;16.60;;;13.43;;
2542;SDS011;1116;51.502;7.414;2024-03-22T08:58:03;17.70;;;13.47;;
2542;SDS011;1116;51.502;7.414;2024-03-22T09:00:29;17.90;;;12.03;;
2542;SDS011;1116;51.502;7.414;2024-03-22T09:02:55;17.13;;;13.27;;
2542;SDS011;1116;51.502;7.414;2024-03-22T09:05:22;18.03;;;12.70;;
2542;SDS011;1116;51.502;7.414;2024-03-22T09:07:48;22.63;;;13.77;;
2542;SDS011;1116;51.502;7.414;2024-03-22T09:10:14;14.17;;;12.70;;
2542;SDS011;1116;51.502;7.414;2024-03-22T09:12:40;14.03;;;12.30;;
2542;SDS011;1116;51.502;7.414;2024-03-22T09:15:10;13.47;;;12.03;;
2542;SDS011;1116;51.502;7.414;2024-03-22T09:17:36;17.20;;;13.03;;
2542;SDS011;1116;51.502;7.414;2024-03-22T09:20:03;15.00;;;11.83;;
2542;SDS011;1116;51.502;7.414;2024-03-22T09:22:30;16.73;;;11.77;;
2542;SDS011;1116;51.502;7.414;2024-03-22T09:24:57;16.23;;;10.60;;
2542;SDS011;1116;51.502;7.414;2024-03-22T09:27:23;11.97;;;10.57;;
2542;SDS011;1116;51.502;7.414;2024-03-22T09:29:50;12.90;;;11.20;;
2542;SDS011;1116;51.502;7.414;2024-03-22T09:32:19;16.13;;;11.97;;
2542;SDS011;1116;51.502;7.414;2024-03-22T09:34:45;15.00;;;12.33;;
2542;SDS011;1116;51.502;7.414;2024-03-22T09:37:13;16.30;;;12.73;;
2542;SDS011;1116;51.502;7.414;2024-03-22T09:39:43;13.07;;;11.40;;
2542;SDS011;1116;51.502;7.414;2024-03-22T09:42:11;17.47;;;12.83;;
2542;SDS011;1116;51.502;7.414;2024-03-22T09:44:42;14.47;;;11.53;;
2542;SDS011;1116;51.502;7.414;2024-03-22T09:47:13;14.50;;;11.13;;
2542;SDS011;1116;51.502;7.414;2024-03-22T09:49:43;15.37;;;13.00;;
2542;SDS011;1116;51.502;7.414;2024-03-22T09:52:10;14.67;;;12.53;;
2542;SDS011;1116;51.502;7.414;2024-03-22T09:54:38;14.53;;;12.20;;
2542;SDS011;1116;51.502;7.414;2024-03-22T09:57:05;14.77;;;12.20;;
2542;SDS011;1116;51.502;7.414;2024-03-22T09:59:32;13.83;;;11.60;;
2542;SDS011;1116;51.502;7.414;2024-03-22T10:01:58;15.27;;;12.50;;
2542;SDS011;1116;51.502;7.414;2024-03-22T10:04:26;14.80;;;12.40;;
2542;SDS011;1116;51.502;7.414;2024-03-22T10:06:55;15.30;;;12.93;;
2542;SDS011;1116;51.502;7.414;2024-03-22T10:09:27;15.73;;;12.10;;
2542;SDS011;1116;51.502;7.414;2024-03-22T10:11:54;12.37;;;11.07;;
2542;SDS011;1116;51.502;7.414;2024-03-22T10:14:21;14.40;;;11.20;;
2542;SDS011;1116;51.502;7.414;2024-03-22T10:16:47;12.93;;;10.40;;
2542;SDS011;1116;51.502;7.414;2024-03-22T10:19:13;13.93;;;11.93;;
2542;SDS011;1116;51.502;7.414;2024-03-22T10:21:41;13.40;;;10.80;;
2542;SDS011;1116;51.502;7.414;2024-03-22T10:24:10;15.00;;;11.93;;
2542;SDS011;1116;51.502;7.414;2024-03-22T10:26:36;12.57;;;10.97;;
2542;SDS011;1116;51.502;7.414;2024-03-22T10:29:05;14.00;;;11.33;;
2542;SDS011;1116;51.502;7.414;2024-03-22T10:31:31;10.83;;;9.73;;
2542;SDS011;1116;51.502;7.414;2024-03-22T10:33:59;14.10;;;10.70;;
2542;SDS011;1116;51.502;7.414;2024-03-22T10:36:28;11.73;;;9.57;;
2542;SDS011;1116;51.502;7.414;2024-03-22T10:38:55;11.93;;;9.70;;
2542;SDS011;1116;51.502;7.414;2024-03-22T10:41:24;10.10;;;8.90;;
2542;SDS011;1116;51.502;7.414;2024-03-22T10:43:50;12.57;;;9.30;;
2542;SDS011;1116;51.502;7.414;2024-03-22T10:46:17;15.80;;;9.47;;
2542;SDS011;1116;51.502;7.414;2024-03-22T10:48:46;12.47;;;9.50;;
2542;SDS011;1116;51.502;7.414;2024-03-22T10:51:13;14.40;;;9.07;;
2542;SDS011;1116;51.502;7.414;2024-03-22T10:53:41;10.43;;;9.00;;
2542;SDS011;1116;51.502;7.414;2024-03-22T10:56:07;12.80;;;8.60;;
2542;SDS011;1116;51.502;7.414;2024-03-22T10:58:37;10.50;;;8.67;;
2542;SDS011;1116;51.502;7.414;2024-03-22T11:01:05;10.63;;;8.20;;
2542;SDS011;1116;51.502;7.414;2024-03-22T11:03:31;9.40;;;8.20;;
2542;SDS011;1116;51.502;7.414;2024-03-22T11:05:59;10.30;;;8.60;;
2542;SDS011;1116;51.502;7.414;2024-03-22T11:08:25;11.20;;;8.67;;
2542;SDS011;1116;51.502;7.414;2024-03-22T11:10:52;9.10;;;8.20;;
2542;SDS011;1116;51.502;7.414;2024-03-22T11:13:20;10.10;;;7.83;;
2542;SDS011;1116;51.502;7.414;2024-03-22T11:15:49;10.20;;;8.80;;
2542;SDS011;1116;51.502;7.414;2024-03-22T11:18:16;9.27;;;8.37;;
2542;SDS011;1116;51.502;7.414;2024-03-22T11:20:43;9.50;;;7.90;;
2542;SDS011;1116;51.502;7.414;2024-03-22T11:23:10;10.20;;;9.13;;
2542;SDS011;1116;51.502;7.414;2024-03-22T11:25:36;12.30;;;9.27;;
2542;SDS011;1116;51.502;7.414;2024-03-22T11:28:03;11.67;;;8.80;;
2542;SDS011;1116;51.502;7.414;2024-03-22T11:30:31;10.03;;;8.60;;
2542;SDS011;1116;51.502;7.414;2024-03-22T11:33:01;15.37;;;9.60;;
2542;SDS011;1116;51.502;7.414;2024-03-22T11:35:28;10.20;;;8.63;;
2542;SDS011;1116;51.502;7.414;2024-03-22T11:37:55;10.27;;;8.33;;
2542;SDS011;1116;51.502;7.414;2024-03-22T11:40:21;9.67;;;7.60;;
2542;SDS011;1116;51.502;7.414;2024-03-22T11:42:49;10.83;;;8.37;;
2542;SDS011;1116;51.502;7.414;2024-03-22T11:45:17;10.87;;;8.63;;
2542;SDS011;1116;51.502;7.414;2024-03-22T11:47:45;9.57;;;8.67;;
2542;SDS011;1116;51.502;7.414;2024-03-22T11:50:15;12.33;;;8.70;;
2542;SDS011;1116;51.502;7.414;2024-03-22T11:52:42;11.57;;;8.70;;
2542;SDS011;1116;51.502;7.414;2024-03-22T11:55:09;11.43;;;8.97;;
2542;SDS011;1116;51.502;7.414;2024-03-22T11:57:36;10.67;;;8.93;;
2542;SDS011;1116;51.502;7.414;2024-03-22T12:00:04;9.67;;;8.17;;
2542;SDS011;1116;51.502;7.414;2024-03-22T12:02:34;9.10;;;7.63;;
2542;SDS011;1116;51.502;7.414;2024-03-22T12:05:01;9.23;;;7.90;;
2542;SDS011;1116;51.502;7.414;2024-03-22T12:07:32;10.20;;;8.00;;
2542;SDS011;1116;51.502;7.414;2024-03-22T12:09:59;11.10;;;8.60;;
2542;SDS011;1116;51.502;7.414;2024-03-22T12:12:25;10.43;;;7.77;;
2542;SDS011;1116;51.502;7.414;2024-03-22T12:14:52;10.80;;;9.10;;
2542;SDS011;1116;51.502;7.414;2024-03-22T12:17:18;9.90;;;8.60;;
2542;SDS011;1116;51.502;7.414;2024-03-22T12:19:44;8.43;;;7.53;;
2542;SDS011;1116;51.502;7.414;2024-03-22T12:22:11;11.17;;;8.47;;
2542;SDS011;1116;51.502;7.414;2024-03-22T12:24:40;10.60;;;8.37;;
2542;SDS011;1116;51.502;7.414;2024-03-22T12:27:06;10.70;;;9.33;;
2542;SDS011;1116;51.502;7.414;2024-03-22T12:29:33;11.20;;;8.70;;
2542;SDS011;1116;51.502;7.414;2024-03-22T12:32:00;13.30;;;10.77;;
2542;SDS011;1116;51.502;7.414;2024-03-22T12:34:27;13.17;;;10.47;;
2542;SDS011;1116;51.502;7.414;2024-03-22T12:36:54;14.57;;;11.97;;
2542;SDS011;1116;51.502;7.414;2024-03-22T12:39:20;14.30;;;12.10;;
2542;SDS011;1116;51.502;7.414;2024-03-22T12:41:49;13.83;;;11.10;;
2542;SDS011;1116;51.502;7.414;2024-03-22T12:44:16;14.20;;;11.30;;
2542;SDS011;1116;51.502;7.414;2024-03-22T12:46:42;12.80;;;9.77;;
2542;SDS011;1116;51.502;7.414;2024-03-22T12:49:09;14.87;;;12.80;;
2542;SDS011;1116;51.502;7.414;2024-03-22T12:51:35;16.73;;;14.10;;
2542;SDS011;1116;51.502;7.414;2024-03-22T12:54:01;15.80;;;13.93;;
2542;SDS011;1116;51.502;7.414;2024-03-22T12:56:28;14.43;;;12.37;;
2542;SDS011;1116;51.502;7.414;2024-03-22T12:58:58;13.27;;;11.20;;
2542;SDS011;1116;51.502;7.414;2024-03-22T13:01:24;13.80;;;11.57;;
2542;SDS011;1116;51.502;7.414;2024-03-22T13:03:50;22.90;;;11.90;;
2542;SDS011;1116;51.502;7.414;2024-03-22T13:06:16;14.77;;;11.90;;
2542;SDS011;1116;51.502;7.414;2024-03-22T13:08:43;13.70;;;11.93;;
2542;SDS011;1116;51.502;7.414;2024-03-22T13:11:09;12.13;;;10.80;;
2542;SDS011;1116;51.502;7.414;2024-03-22T13:13:36;12.50;;;10.80;;
2542;SDS011;1116;51.502;7.414;2024-03-22T13:16:05;12.43;;;10.40;;
2542;SDS011;1116;51.502;7.414;2024-03-22T13:18:32;12.93;;;10.80;;
2542;SDS011;1116;51.502;7.414;2024-03-22T13:20:58;12.53;;;10.90;;
2542;SDS011;1116;51.502;7.414;2024-03-22T13:23:24;13.13;;;10.73;;
2542;SDS011;1116;51.502;7.414;2024-03-22T13:25:50;18.27;;;12.10;;
2542;SDS011;1116;51.502;7.414;2024-03-22T13:28:17;16.73;;;11.90;;
2542;SDS011;1116;51.502;7.414;2024-03-22T13:30:44;16.67;;;12.20;;
2542;SDS011;1116;51.502;7.414;2024-03-22T13:33:13;13.17;;;11.77;;
2542;SDS011;1116;51.502;7.414;2024-03-22T13:35:39;16.70;;;12.67;;
2542;SDS011;1116;51.502;7.414;2024-03-22T13:38:06;16.13;;;13.17;;
2542;SDS011;1116;51.502;7.414;2024-03-22T13:40:32;15.57;;;13.70;;
2542;SDS011;1116;51.502;7.414;2024-03-22T13:42:58;13.53;;;12.00;;
2542;SDS011;1116;51.502;7.414;2024-03-22T13:45:25;17.13;;;13.83;;
2542;SDS011;1116;51.502;7.414;2024-03-22T13:47:51;20.07;;;14.67;;
2542;SDS011;1116;51.502;7.414;2024-03-22T13:50:20;16.90;;;14.43;;
2542;SDS011;1116;51.502;7.414;2024-03-22T13:52:47;15.10;;;13.40;;
2542;SDS011;1116;51.502;7.414;2024-03-22T13:55:13;20.70;;;15.10;;
2542;SDS011;1116;51.502;7.414;2024-03-22T13:57:40;14.80;;;13.23;;
2542;SDS011;1116;51.502;7.414;2024-03-22T14:00:07;16.53;;;13.70;;
2542;SDS011;1116;51.502;7.414;2024-03-22T14:02:34;15.67;;;13.10;;
2542;SDS011;1116;51.502;7.414;2024-03-22T14:05:00;15.17;;;12.83;;
2542;SDS011;1116;51.502;7.414;2024-03-22T14:07:29;14.83;;;13.20;;
2542;SDS011;1116;51.502;7.414;2024-03-22T14:09:56;16.17;;;14.57;;
2542;SDS011;1116;51.502;7.414;2024-03-22T14:12:22;16.73;;;13.97;;
2542;SDS011;1116;51.502;7.414;2024-03-22T14:14:48;18.37;;;15.50;;
2542;SDS011;1116;51.502;7.414;2024-03-22T14:17:14;17.83;;;15.10;;
2542;SDS011;1116;51.502;7.414;2024-03-22T14:19:41;16.80;;;14.27;;
2542;SDS011;1116;51.502;7.414;2024-03-22T14:22:07;16.40;;;14.67;;
2542;SDS011;1116;51.502;7.414;2024-03-22T14:24:36;18.80;;;16.80;;
2542;SDS011;1116;51.502;7.414;2024-03-22T14:27:02;17.93;;;15.77;;
2542;SDS011;1116;51.502;7.414;2024-03-22T14:29:29;19.93;;;17.20;;
2542;SDS011;1116;51.502;7.414;2024-03-22T14:31:55;20.60;;;16.03;;
2542;SDS011;1116;51.502;7.414;2024-03-22T14:34:22;18.60;;;16.37;;
2542;SDS011;1116;51.502;7.414;2024-03-22T14:36:48;18.00;;;15.83;;
2542;SDS011;1116;51.502;7.414;2024-03-22T14:39:14;19.23;;;15.40;;
2542;SDS011;1116;51.502;7.414;2024-03-22T14:41:43;18.63;;;15.93;;
2542;SDS011;1116;51.502;7.414;2024-03-22T14:44:10;17.87;;;16.03;;
2542;SDS011;1116;51.502;7.414;2024-03-22T14:46:36;16.93;;;15.13;;
2542;SDS011;1116;51.502;7.414;2024-03-22T14:49:03;18.17;;;16.27;;